Latest Weather Observations for White Cliffs AWS

IDN60801

Issued at 9:32 pm EST Friday 3 July 2015 (issued every 30 minutes, with the page automatically refreshed every 10 minutes)

About weather observations | Map of weather stations | Latest weather observations for NSW | Other Formats
Station Details ID: 046129 Name: WHITE CLIFFS AWS Lat: -30.85 Lon: 143.07 Height: 158.0 m
Data from the previous 72 hours. | See also: Recent months at White Cliffs AWS
Date/Time
EST
Temp
°C
App
Temp
°C
Dew
Point
Rel
Hum
%
Delta-T
°C
Wind Press
QNH
hPa
Press
MSL
hPa
Rain
since 9 am
mm
Dir
 
Spd
km/h
Gust
km/h
Spd
kts
Gust
kts
03/09:30pm 8.1 3.8 0.8 60 2.9 SE 13 15 7 8 1026.4 1026.5 0.0
03/09:00pm 8.3 3.6 1.0 60 3.0 SE 15 17 8 9 1026.5 1026.6 0.0
03/08:30pm 8.5 4.2 1.0 59 3.1 SE 13 15 7 8 1026.7 1026.8 0.0
03/08:00pm 8.8 4.5 1.2 59 3.1 SE 13 13 7 7 1026.6 1026.7 0.0
03/07:30pm 9.0 4.8 1.4 59 3.2 SE 13 15 7 8 1026.4 1026.5 0.0
03/07:00pm 9.0 4.7 1.2 58 3.2 SE 13 13 7 7 1026.3 1026.4 0.0
03/06:30pm 9.2 5.4 1.6 59 3.2 SSE 11 13 6 7 1026.2 1026.3 0.0
03/06:00pm 10.0 6.1 1.4 55 3.6 SSE 11 11 6 6 1026.0 1026.1 0.0
03/05:30pm 11.3 7.4 1.0 49 4.3 SSE 11 15 6 8 1025.9 1026.0 0.0
03/05:00pm 12.1 7.7 0.2 44 4.9 SE 13 17 7 9 1025.7 1025.8 0.0
03/04:30pm 12.5 8.1 0.3 43 5.1 SSE 13 19 7 10 1025.7 1025.8 0.0
03/04:00pm 12.9 8.6 1.0 44 5.0 SSE 13 17 7 9 1025.8 1025.9 0.0
03/03:30pm 12.7 8.3 0.5 43 5.1 SSE 13 20 7 11 1026.0 1026.1 0.0
03/03:00pm 13.0 8.7 0.7 43 5.2 S 13 19 7 10 1026.4 1026.5 0.0
03/02:30pm 12.5 8.6 0.9 45 4.9 SSE 11 19 6 10 1026.4 1026.5 0.0
03/02:00pm 12.5 8.2 1.2 46 4.8 SSE 13 20 7 11 1026.6 1026.7 0.0
03/01:30pm 12.3 8.0 0.7 45 4.9 SE 13 20 7 11 1026.8 1026.9 0.0
03/01:00pm 11.9 8.0 1.0 47 4.6 ESE 11 17 6 9 1027.3 1027.4 0.0
03/12:30pm 11.9 8.1 1.8 50 4.3 E 11 17 6 9 1027.8 1027.9 0.0
03/12:00pm 10.9 7.1 2.0 54 3.8 E 11 15 6 8 1028.4 1028.6 0.0
03/11:30am 10.9 7.7 3.0 58 3.4 E 9 13 5 7 1028.7 1028.9 0.0
03/11:00am 10.0 6.8 3.1 62 3.0 E 9 13 5 7 1028.9 1029.1 0.0
03/10:30am 9.3 5.3 2.9 64 2.8 E 13 17 7 9 1029.1 1029.3 0.0
03/10:00am 8.8 4.8 3.0 67 2.5 ESE 13 19 7 10 1029.2 1029.4 0.0
03/09:30am 8.0 3.6 2.9 70 2.2 ESE 15 19 8 10 1028.8 1029.0 0.0
03/09:00am 7.3 3.0 3.0 74 1.8 ESE 15 19 8 10 1028.3 1028.5 0.0
03/08:30am 6.2 3.1 3.5 83 1.1 ESE 9 11 5 6 1028.3 1028.5 0.0
03/08:00am 4.9 1.3 3.1 88 0.7 ESE 11 13 6 7 1027.9 1028.1 0.0
03/07:30am 3.6 0.8 2.3 91 0.5 SSE 6 9 3 5 1027.8 1027.9 0.0
03/07:00am 3.7 0.9 2.2 90 0.6 SSE 6 7 3 4 1027.8 1027.9 0.0
03/06:30am 6.0 2.8 3.2 82 1.2 SE 9 13 5 7 1027.5 1027.6 0.0
03/06:00am 6.0 2.4 3.0 81 1.2 ESE 11 13 6 7 1027.2 1027.3 0.0
03/05:30am 6.4 2.8 3.2 80 1.4 SE 11 15 6 8 1027.2 1027.3 0.0
03/05:00am 6.4 2.5 3.2 80 1.3 SSE 13 17 7 9 1027.1 1027.2 0.0
03/04:30am 7.4 3.2 3.6 77 1.6 SE 15 19 8 10 1027.4 1027.5 0.0
03/04:00am 6.6 2.5 4.1 84 1.1 SSE 15 17 8 9 1027.4 1027.5 0.0
03/03:30am 6.9 2.8 4.6 85 1.0 SSE 15 17 8 9 1027.5 1027.6 0.0
03/03:00am 7.2 2.8 5.0 86 1.0 SSE 17 19 9 10 1027.4 1027.5 0.0
03/02:30am 7.9 3.3 5.7 86 1.0 SSE 19 24 10 13 1027.6 1027.7 0.0
03/02:00am 8.5 3.8 6.1 85 1.1 SSE 20 24 11 13 1027.5 1027.6 0.0
03/01:30am 7.9 3.8 6.0 88 0.9 S 17 20 9 11 1027.6 1027.7 0.0
03/01:00am 7.7 3.9 5.8 88 0.9 S 15 17 8 9 1027.8 1027.9 0.0
03/12:30am 7.7 4.3 5.8 88 0.9 S 13 15 7 8 1028.0 1028.2 0.0
03/12:00am 7.8 4.7 5.6 86 1.0 S 11 13 6 7 1028.1 1028.3 0.0
 
Date/Time
EST
Temp
°C
App
Temp
°C
Dew
Point
Rel
Hum
%
Delta-T
°C
Wind Press
QNH
hPa
Press
MSL
hPa
Rain
since 9 am
mm
Dir
 
Spd
km/h
Gust
km/h
Spd
kts
Gust
kts
02/11:30pm 8.5 5.1 6.1 85 1.1 S 13 13 7 7 1028.2 1028.4 0.0
02/11:00pm 8.5 5.5 6.0 84 1.1 S 11 13 6 7 1028.1 1028.3 0.0
02/10:30pm 8.9 5.5 6.0 82 1.3 S 13 15 7 8 1028.3 1028.5 0.0
02/10:00pm 9.2 6.6 5.9 80 1.5 S 9 11 5 6 1028.2 1028.4 0.0
02/09:30pm 9.7 6.7 5.9 77 1.8 S 11 11 6 6 1028.2 1028.4 0.0
02/09:00pm 10.7 7.7 5.9 72 2.2 S 11 13 6 7 1028.2 1028.4 0.0
02/08:30pm 11.0 8.0 6.0 71 2.3 S 11 11 6 6 1028.0 1028.2 0.0
02/08:00pm 10.3 7.6 5.5 72 2.2 S 9 11 5 6 1027.6 1027.7 0.0
02/07:30pm 11.4 8.3 5.5 67 2.7 SSE 11 11 6 6 1027.4 1027.5 0.0
02/07:00pm 12.1 8.9 5.3 63 3.1 SSE 11 13 6 7 1027.4 1027.5 0.0
02/06:30pm 13.0 9.8 5.2 59 3.7 SSE 11 15 6 8 1027.2 1027.3 0.0
02/06:00pm 13.8 10.6 4.9 55 4.1 S 11 13 6 7 1026.9 1027.0 0.0
02/05:30pm 14.4 11.0 4.1 50 4.8 SSW 11 15 6 8 1026.7 1026.8 0.0
02/05:00pm 14.8 10.2 3.6 47 5.1 SSW 17 22 9 12 1026.7 1026.8 0.0
02/04:30pm 15.2 10.5 3.4 45 5.4 SSW 17 24 9 13 1026.5 1026.6 0.0
02/04:00pm 15.2 10.9 3.0 44 5.5 SSW 15 20 8 11 1026.5 1026.6 0.0
02/03:30pm 15.0 10.7 3.2 45 5.4 SSW 15 22 8 12 1026.6 1026.7 0.0
02/03:00pm 14.8 10.8 3.0 45 5.3 SW 13 17 7 9 1026.4 1026.5 0.0
02/02:30pm 14.8 11.6 3.3 46 5.2 SSW 9 15 5 8 1026.5 1026.6 0.0
02/02:00pm 14.3 10.4 3.2 47 5.0 S 13 20 7 11 1026.5 1026.6 0.0
02/01:30pm 13.9 8.7 2.5 46 5.1 S 19 26 10 14 1026.9 1027.0 0.0
02/01:00pm 13.5 8.6 2.1 46 5.0 S 17 24 9 13 1027.2 1027.3 0.0
02/12:30pm 13.2 8.7 2.4 48 4.8 S 15 20 8 11 1027.7 1027.8 0.0
02/12:00pm 13.2 9.2 3.0 50 4.5 SSW 13 19 7 10 1028.2 1028.4 0.0
02/11:30am 12.4 8.4 2.6 51 4.3 SSW 13 19 7 10 1028.5 1028.7 0.0
02/11:00am 11.9 8.2 2.6 53 4.0 SSW 11 15 6 8 1028.8 1029.0 0.0
02/10:30am 11.3 7.3 3.1 57 3.6 SSW 13 19 7 10 1028.9 1029.1 0.0
02/10:00am 9.9 6.0 3.2 63 2.9 SSW 13 15 7 8 1029.1 1029.3 0.0
02/09:30am 8.6 4.7 3.4 70 2.3 SSW 13 15 7 8 1029.0 1029.2 0.0
02/09:00am 7.4 3.9 3.6 77 1.6 SSW 11 13 6 7 1028.6 1028.8 0.0
02/08:30am 6.2 3.1 3.5 83 1.1 SW 9 11 5 6 1028.4 1028.6 0.0
02/08:00am 4.4 0.7 2.4 87 0.8 SW 11 11 6 6 1027.9 1028.1 0.0
02/07:30am 4.0 0.2 2.0 87 0.8 SW 11 11 6 6 1027.6 1027.7 0.0
02/07:00am 4.4 0.6 1.9 84 1.0 SSW 11 11 6 6 1027.1 1027.2 0.0
02/06:30am 4.7 1.0 2.2 84 1.0 SSW 11 11 6 6 1026.8 1026.9 0.0
02/06:00am 4.9 1.2 2.6 85 0.9 SSW 11 11 6 6 1026.6 1026.7 0.0
02/05:30am 5.3 2.1 2.8 84 1.0 SSW 9 11 5 6 1026.2 1026.3 0.0
02/05:00am 5.4 1.4 3.1 85 1.0 SW 13 15 7 8 1026.6 1026.7 0.0
02/04:30am 5.1 1.9 3.1 87 0.8 SSW 9 11 5 6 1026.6 1026.7 0.0
02/04:00am 4.8 1.9 2.8 87 0.8 SW 7 9 4 5 1026.8 1026.9 0.0
02/03:30am 4.8 1.6 2.8 87 0.8 WSW 9 11 5 6 1027.4 1027.5 0.0
02/03:00am 4.8 1.5 2.7 86 0.9 SW 9 9 5 5 1027.1 1027.2 0.0
02/02:30am 5.5 1.6 3.2 85 1.0 SW 13 13 7 7 1027.1 1027.2 0.0
02/02:00am 5.4 2.2 3.3 86 0.9 SSW 9 11 5 6 1027.4 1027.5 0.0
02/01:30am 5.8 2.2 3.1 83 1.1 SSW 11 13 6 7 1027.5 1027.6 0.0
02/01:00am 5.6 2.0 3.1 84 1.0 SSW 11 15 6 8 1027.5 1027.6 0.0
02/12:30am 6.2 2.6 3.2 81 1.3 SSW 11 13 6 7 1027.4 1027.5 0.0
02/12:00am 6.6 2.7 3.2 79 1.4 S 13 13 7 7 1027.8 1027.9 0.0
 
Date/Time
EST
Temp
°C
App
Temp
°C
Dew
Point
Rel
Hum
%
Delta-T
°C
Wind Press
QNH
hPa
Press
MSL
hPa
Rain
since 9 am
mm
Dir
 
Spd
km/h
Gust
km/h
Spd
kts
Gust
kts
01/11:30pm 6.5 3.3 3.3 80 1.4 S 9 11 5 6 1027.7 1027.8 0.0
01/11:00pm 6.8 3.7 3.6 80 1.4 SSW 9 11 5 6 1027.7 1027.8 0.0
01/10:30pm 7.2 4.1 3.6 78 1.5 SSW 9 11 5 6 1027.8 1027.9 0.0
01/10:00pm 7.7 4.6 3.6 75 1.8 S 9 9 5 5 1027.9 1028.1 0.0
01/09:30pm 7.8 4.7 3.8 76 1.7 S 9 11 5 6 1028.0 1028.2 0.0
01/09:00pm 8.3 4.9 3.8 73 1.9 S 11 13 6 7 1027.8 1027.9 0.0
01/08:30pm 8.5 5.1 3.8 72 2.1 S 11 13 6 7 1027.8 1027.9 0.0
01/08:00pm 8.8 5.4 4.0 72 2.1 S 11 13 6 7 1027.6 1027.7 0.0
01/07:30pm 9.5 6.1 4.1 69 2.4 SSE 11 11 6 6 1027.0 1027.1 0.0
01/07:00pm 9.5 6.5 4.3 70 2.3 SSE 9 9 5 5 1027.2 1027.3 0.0
01/06:30pm 10.2 7.8 4.4 67 2.6 SSW 6 9 3 5 1027.1 1027.2 0.0
01/06:00pm 11.4 9.0 4.2 61 3.2 S 6 7 3 4 1026.9 1027.0 0.0
01/05:30pm 12.3 9.8 3.5 55 3.9 SSE 6 9 3 5 1026.8 1026.9 0.0
01/05:00pm 12.7 9.4 2.6 50 4.4 S 9 15 5 8 1026.7 1026.8 0.0
01/04:30pm 13.2 9.6 2.7 49 4.7 S 11 17 6 9 1026.7 1026.8 0.0
01/04:00pm 13.1 8.9 1.8 46 4.9 SSW 13 20 7 11 1026.9 1027.0 0.0
01/03:30pm 13.5 9.0 2.1 46 5.0 SSW 15 22 8 12 1026.8 1026.9 0.0
01/03:00pm 13.4 8.9 2.0 46 5.0 S 15 20 8 11 1027.1 1027.2 0.0
01/02:30pm 13.5 9.1 2.7 48 4.8 S 15 20 8 11 1027.2 1027.3 0.0
01/02:00pm 13.0 8.5 2.3 48 4.7 S 15 22 8 12 1027.6 1027.7 0.0
01/01:30pm 13.0 9.3 2.5 49 4.6 S 11 15 6 8 1028.2 1028.4 0.0
01/01:00pm 12.8 9.5 2.4 49 4.5 SW 9 13 5 7 1028.8 1029.0 0.0
01/12:30pm 12.2 8.8 1.8 49 4.5 S 9 17 5 9 1028.9 1029.1 0.0
01/12:00pm 12.1 8.7 2.0 50 4.3 S 9 15 5 8 1029.6 1029.8 0.0
01/11:30am 11.7 8.8 2.7 54 3.9 SSE 7 11 4 6 1030.0 1030.1 0.0
01/11:00am 11.3 8.6 3.8 60 3.3 SSE 7 13 4 7 1030.3 1030.4 0.0
01/10:30am 10.4 7.3 3.7 63 3.0 S 9 11 5 6 1030.5 1030.6 0.0
01/10:00am 9.5 6.0 3.5 66 2.6 S 11 13 6 7 1030.5 1030.6 0.0
01/09:30am 8.4 4.2 3.8 73 2.0 S 15 19 8 10 1030.2 1030.3 0.0
01/09:00am 7.2 3.0 3.6 78 1.5 S 15 19 8 10 1030.2 1030.3 0.0
01/08:30am 5.8 1.8 3.1 83 1.1 S 13 15 7 8 1030.2 1030.3 0.0
01/08:00am 5.0 1.0 2.9 86 0.9 S 13 17 7 9 1030.0 1030.1 0.0
01/07:30am 4.1 -0.3 2.5 89 0.6 SSW 15 17 8 9 1029.8 1029.9 0.0
01/07:00am 3.9 -0.6 2.4 90 0.6 S 15 17 8 9 1029.4 1029.6 0.0
01/06:30am 4.2 -0.2 2.9 91 0.5 S 15 17 8 9 1029.0 1029.1 0.0
01/06:00am 3.8 -0.3 2.5 91 0.5 S 13 15 7 8 1028.6 1028.7 0.0
01/05:30am 4.3 0.3 2.8 90 0.6 S 13 15 7 8 1028.3 1028.4 0.0
01/05:00am 4.4 0.4 2.8 89 0.6 S 13 15 7 8 1028.2 1028.3 0.0
01/04:30am 5.1 1.1 3.1 87 0.8 SSE 13 15 7 8 1028.1 1028.2 0.0
01/04:00am 5.4 1.5 3.3 86 0.9 S 13 17 7 9 1028.3 1028.4 0.0
01/03:30am 5.7 1.4 3.2 84 1.0 S 15 17 8 9 1028.3 1028.4 0.0
01/03:00am 5.9 1.6 3.4 84 1.0 S 15 19 8 10 1028.3 1028.4 0.0
01/02:30am 6.0 1.4 3.5 84 1.1 S 17 19 9 10 1028.6 1028.7 0.0
01/02:00am 6.1 1.9 3.6 84 1.1 S 15 17 8 9 1028.4 1028.5 0.0
01/01:30am 6.0 2.2 3.8 86 0.9 S 13 15 7 8 1028.4 1028.5 0.0
01/01:00am 6.4 2.2 3.9 84 1.1 S 15 17 8 9 1028.6 1028.7 0.0
01/12:30am 6.9 2.8 4.2 83 1.2 S 15 17 8 9 1028.7 1028.8 0.0
01/12:00am 7.2 2.7 4.3 82 1.3 S 17 19 9 10 1028.7 1028.8 0.0
 
Date/Time
EST
Temp
°C
App
Temp
°C
Dew
Point
Rel
Hum
%
Delta-T
°C
Wind Press
QNH
hPa
Press
MSL
hPa
Rain
since 9 am
mm
Dir
 
Spd
km/h
Gust
km/h
Spd
kts
Gust
kts
30/11:30pm 7.5 2.7 4.6 82 1.3 S 19 20 10 11 1029.0 1029.1 0.0
30/11:00pm 7.5 3.9 5.0 84 1.1 S 13 15 7 8 1029.2 1029.4 0.0
30/10:30pm 8.0 4.0 4.9 81 1.4 S 15 17 8 9 1029.2 1029.4 0.0
30/10:00pm 8.4 4.8 5.0 79 1.5 S 13 15 7 8 1029.2 1029.4 0.0

Other Formats:

Comma delimited format used in spreadsheet applications
http://www.bom.gov.au/fwo/IDN60801/IDN60801.95699.axf

JavaScript Object Notation format (JSON) in row-major order
http://www.bom.gov.au/fwo/IDN60801/IDN60801.95699.json